Time;durP1;ratioP1;P1;durP2;ratioP2;P2;SDS_P1;SDS_P2;PMS_P1;PMS_P2;Temp;Humidity;BMP_temperature;BMP_pressure;BME280_temperature;BME280_humidity;BME280_pressure;Samples;Min_cycle;Max_cycle;Signal;HPM_P1;HPM_P2
2022/07/18 00:00:44;;;;;;;11.55;4.25;;;512.20;2124.80;;;;;;5134231;28;20447;-78
2022/07/18 00:03:09;;;;;;;9.98;3.90;;;512.20;2124.80;;;;;;5134620;28;20043;-76
2022/07/18 00:05:35;;;;;;;11.55;4.32;;;512.10;2150.40;;;;;;5135233;28;20035;-79
2022/07/18 00:08:01;;;;;;;7.82;3.85;;;512.10;2150.40;;;;;;5133487;28;20515;-77
2022/07/18 00:10:27;;;;;;;9.65;4.43;;;512.20;2150.40;;;;;;5134922;28;20027;-78
2022/07/18 00:12:53;;;;;;;13.05;4.40;;;487.30;2150.40;;;;;;5135006;28;20023;-77
2022/07/18 00:15:19;;;;;;;8.20;4.50;;;;;;;;;;5134079;28;20368;-80
2022/07/18 00:17:45;;;;;;;10.32;4.53;;;;;;;;;;5136010;28;20472;-79
2022/07/18 00:20:12;;;;;;;11.93;5.60;;;;;;;;;;5134381;27;20125;-75
2022/07/18 00:22:39;;;;;;;12.88;6.25;;;;;;;;;;5137445;27;20019;-77
2022/07/18 00:25:05;;;;;;;10.43;6.35;;;487.30;2176.00;;;;;;5139412;27;20471;-77
2022/07/18 00:27:31;;;;;;;12.15;7.47;;;487.10;2176.00;;;;;;5138778;27;20486;-75
2022/07/18 00:29:57;;;;;;;12.32;7.68;;;487.00;2201.60;;;;;;5137314;27;20023;-78
2022/07/18 00:32:23;;;;;;;19.38;8.82;;;;;;;;;;5136691;27;20030;-77
2022/07/18 00:34:49;;;;;;;9.85;6.45;;;;;;;;;;5137556;27;20479;-76
2022/07/18 00:37:16;;;;;;;12.73;6.30;;;;;;;;;;5136326;27;20023;-77
2022/07/18 00:39:42;;;;;;;13.43;6.93;;;;;;;;;;5136212;27;20023;-78
2022/07/18 00:42:08;;;;;;;9.40;6.32;;;;;;;;;;5137742;27;20053;-78
2022/07/18 00:44:34;;;;;;;12.60;6.50;;;;;;;;;;5135779;27;20077;-76
2022/07/18 00:47:01;;;;;;;8.35;5.63;;;;;;;;;;5136139;27;20054;-75
2022/07/18 00:49:27;;;;;;;11.75;6.47;;;;;;;;;;5136530;27;20024;-79
2022/07/18 00:51:53;;;;;;;12.15;6.95;;;486.70;2201.60;;;;;;5136887;27;20068;-76
2022/07/18 00:54:20;;;;;;;12.02;7.20;;;486.60;2201.60;;;;;;5136358;27;20032;-79
2022/07/18 00:56:48;;;;;;;13.07;9.23;;;486.40;2227.20;;;;;;5136085;27;20220;-79
2022/07/18 00:59:15;;;;;;;13.73;8.57;;;461.50;2252.80;;;;;;5137417;27;20047;-76
2022/07/18 01:01:43;;;;;;;12.20;7.22;;;461.70;2252.80;;;;;;5137416;27;20060;-77
2022/07/18 01:04:15;;;;;;;14.10;7.53;;;461.70;2252.80;;;;;;5140158;27;20031;-77
2022/07/18 01:06:42;;;;;;;12.10;6.28;;;461.70;2252.80;;;;;;5135980;27;20091;-76
2022/07/18 01:09:08;;;;;;;9.15;5.47;;;486.40;2252.80;;;;;;5135990;27;20028;-76
2022/07/18 01:11:34;;;;;;;9.48;6.10;;;486.40;2252.80;;;;;;5138074;27;20038;-77
2022/07/18 01:14:05;;;;;;;11.07;6.18;;;461.60;2252.80;;;;;;5136210;27;20023;-77
2022/07/18 01:16:31;;;;;;;9.52;6.15;;;461.60;2252.80;;;;;;5137741;27;20061;-76
2022/07/18 01:18:57;;;;;;;7.65;5.22;;;461.60;2252.80;;;;;;5137136;27;20475;-78
2022/07/18 01:21:23;;;;;;;9.75;5.53;;;461.70;2278.40;;;;;;5137414;27;20072;-78
2022/07/18 01:23:49;;;;;;;10.15;5.50;;;461.50;2252.80;;;;;;5137851;27;20071;-78
2022/07/18 01:26:17;;;;;;;9.65;5.07;;;;;;;;;;5138585;27;20455;-78
2022/07/18 01:28:44;;;;;;;9.25;4.70;;;;;;;;;;5137947;27;20015;-76
2022/07/18 01:31:10;;;;;;;8.43;4.60;;;;;;;;;;5135775;27;20472;-76
2022/07/18 01:33:36;;;;;;;10.57;5.97;;;;;;;;;;5135148;27;20019;-78
2022/07/18 01:36:04;;;;;;;11.38;4.97;;;;;;;;;;5135489;27;20031;-78
2022/07/18 01:38:31;;;;;;;13.40;4.85;;;461.20;2278.40;;;;;;5135417;27;20095;-78
2022/07/18 01:40:57;;;;;;;7.93;4.43;;;461.30;2278.40;;;;;;5135207;27;20468;-76
2022/07/18 01:43:24;;;;;;;8.90;5.28;;;461.10;2304.00;;;;;;5135155;27;20024;-77
2022/07/18 01:45:50;;;;;;;8.23;5.22;;;461.10;2304.00;;;;;;5134732;27;20047;-77
2022/07/18 01:48:16;;;;;;;10.70;5.90;;;461.00;2304.00;;;;;;5135384;27;20023;-76
2022/07/18 01:50:42;;;;;;;9.63;5.25;;;460.90;2304.00;;;;;;5135293;27;20083;-78
2022/07/18 01:53:08;;;;;;;9.18;5.22;;;436.10;2304.00;;;;;;5134771;27;20448;-78
2022/07/18 01:55:34;;;;;;;8.25;5.15;;;460.80;2304.00;;;;;;5135102;27;20029;-75
2022/07/18 01:58:00;;;;;;;8.13;5.25;;;460.80;2304.00;;;;;;5134678;27;20126;-75
2022/07/18 02:00:26;;;;;;;10.07;4.75;;;436.10;2278.40;;;;;;5134212;27;20031;-77
2022/07/18 02:02:52;;;;;;;6.57;4.45;;;436.10;2278.40;;;;;;5135054;27;20036;-78
2022/07/18 02:05:18;;;;;;;8.15;4.45;;;436.10;2278.40;;;;;;5134624;27;20034;-78
2022/07/18 02:07:44;;;;;;;7.90;4.50;;;436.00;2278.40;;;;;;5134263;27;20119;-76
2022/07/18 02:10:17;;;;;;;7.00;3.67;;;435.90;2278.40;;;;;;5134823;27;20027;-75
2022/07/18 02:12:43;;;;;;;7.10;4.28;;;435.90;2278.40;;;;;;5134809;27;20525;-77
2022/07/18 02:15:10;;;;;;;8.68;3.70;;;435.90;2278.40;;;;;;5134507;27;20038;-75
2022/07/18 02:17:36;;;;;;;8.48;4.28;;;435.60;2304.00;;;;;;5134925;27;20030;-75
2022/07/18 02:20:05;;;;;;;8.38;3.67;;;435.40;2304.00;;;;;;5134457;27;20023;-78
2022/07/18 02:22:31;;;;;;;9.80;4.53;;;435.60;2304.00;;;;;;5135437;27;20026;-78
2022/07/18 02:24:56;;;;;;;6.85;4.10;;;435.50;2304.00;;;;;;5135400;27;20031;-76
2022/07/18 02:27:22;;;;;;;8.07;4.05;;;435.60;2304.00;;;;;;5134284;27;20117;-76
2022/07/18 02:29:49;;;;;;;7.00;4.05;;;435.40;2329.60;;;;;;5134082;27;20076;-75
2022/07/18 02:32:15;;;;;;;9.50;3.95;;;435.30;2329.60;;;;;;5134492;27;20102;-76
2022/07/18 02:34:41;;;;;;;7.80;3.50;;;435.40;2329.60;;;;;;5134217;27;20114;-74
2022/07/18 02:37:07;;;;;;;8.23;3.47;;;435.40;2304.00;;;;;;5134189;27;20509;-75
2022/07/18 02:39:33;;;;;;;7.10;4.13;;;410.50;2304.00;;;;;;5134284;27;20019;-76
2022/07/18 02:41:59;;;;;;;8.18;3.70;;;435.30;2304.00;;;;;;5133955;27;20380;-76
2022/07/18 02:44:25;;;;;;;7.13;3.78;;;435.40;2304.00;;;;;;5133447;27;20066;-75
2022/07/18 02:46:50;;;;;;;10.27;3.75;;;435.30;2304.00;;;;;;5133947;27;20043;-77
2022/07/18 02:49:28;;;;;;;5.78;3.80;;;435.30;2329.60;;;;;;5133742;27;20493;-77
2022/07/18 02:51:58;;;;;;;8.30;4.03;;;410.20;2355.20;;;;;;5134072;27;20027;-77
2022/07/18 02:54:26;;;;;;;9.80;3.95;;;409.90;2355.20;;;;;;5134034;27;20023;-75
2022/07/18 02:56:52;;;;;;;8.70;4.35;;;;;;;;;;5133894;27;20031;-77
2022/07/18 02:59:18;;;;;;;6.85;3.70;;;409.90;2355.20;;;;;;5133871;27;20019;-77
2022/07/18 03:01:44;;;;;;;6.32;4.03;;;409.90;2355.20;;;;;;5133800;27;20024;-77
2022/07/18 03:04:10;;;;;;;7.00;3.33;;;410.00;2355.20;;;;;;5133593;27;20019;-75
2022/07/18 03:06:36;;;;;;;9.52;3.80;;;410.10;2355.20;;;;;;5133777;27;20027;-75
2022/07/18 03:09:03;;;;;;;8.27;3.92;;;409.90;2355.20;;;;;;5135238;27;20023;-77
2022/07/18 03:11:29;;;;;;;7.47;3.20;;;409.70;2355.20;;;;;;5133374;27;20023;-76
2022/07/18 03:13:55;;;;;;;8.75;3.83;;;409.90;2355.20;;;;;;5135263;27;20056;-75
2022/07/18 03:16:20;;;;;;;7.05;3.90;;;409.90;2355.20;;;;;;5133831;27;20502;-76
2022/07/18 03:18:46;;;;;;;5.13;3.33;;;409.70;2355.20;;;;;;5134874;27;20049;-76
2022/07/18 03:21:12;;;;;;;9.05;3.72;;;409.70;2355.20;;;;;;5133726;27;20031;-74
2022/07/18 03:23:38;;;;;;;9.60;3.95;;;409.90;2355.20;;;;;;5133894;27;20023;-78
2022/07/18 03:26:04;;;;;;;9.80;4.00;;;409.90;2355.20;;;;;;5133193;27;20027;-77
2022/07/18 03:28:30;;;;;;;5.90;3.47;;;410.00;2355.20;;;;;;5133572;27;20020;-76
2022/07/18 03:30:58;;;;;;;5.63;3.25;;;410.00;2355.20;;;;;;5134103;27;20042;-76
2022/07/18 03:33:25;;;;;;;6.72;3.80;;;410.10;2355.20;;;;;;5134971;27;20023;-74
2022/07/18 03:35:51;;;;;;;5.93;3.38;;;410.10;2355.20;;;;;;5133197;28;20145;-76
2022/07/18 03:38:16;;;;;;;5.57;3.65;;;384.90;2329.60;;;;;;5132749;28;20110;-78
2022/07/18 03:40:42;;;;;;;7.97;3.55;;;409.70;2355.20;;;;;;5133163;28;20027;-77
2022/07/18 03:43:08;;;;;;;7.18;3.30;;;409.90;2355.20;;;;;;5133262;28;20059;-75
2022/07/18 03:45:34;;;;;;;8.75;3.72;;;409.80;2355.20;;;;;;5132869;28;20047;-74
2022/07/18 03:48:00;;;;;;;6.03;3.20;;;409.70;2355.20;;;;;;5133520;28;20488;-76
2022/07/18 03:50:27;;;;;;;5.43;3.13;;;409.70;2355.20;;;;;;5133420;28;20023;-77
2022/07/18 03:52:53;;;;;;;6.60;3.47;;;409.90;2355.20;;;;;;5134263;27;20448;-77
2022/07/18 03:55:19;;;;;;;8.15;3.95;;;409.90;2355.20;;;;;;5132853;27;20041;-75
2022/07/18 03:57:45;;;;;;;8.13;3.72;;;409.80;2355.20;;;;;;5136840;27;20065;-77
2022/07/18 04:00:12;;;;;;;5.97;3.80;;;409.70;2355.20;;;;;;5137225;27;20050;-75
2022/07/18 04:02:46;;;;;;;8.52;3.65;;;410.00;2355.20;;;;;;5137296;27;20023;-77
2022/07/18 04:05:13;;;;;;;11.10;5.68;;;410.00;2355.20;;;;;;5137346;27;20027;-77
2022/07/18 04:07:41;;;;;;;5.85;3.22;;;410.20;2355.20;;;;;;5137103;27;20079;-75
2022/07/18 04:10:08;;;;;;;6.45;3.42;;;410.30;2355.20;;;;;;5137197;27;20023;-75
2022/07/18 04:12:34;;;;;;;11.20;4.00;;;410.30;2355.20;;;;;;5154704;27;20027;-74
2022/07/18 04:15:00;;;;;;;9.88;4.07;;;410.30;2355.20;;;;;;5158306;27;20050;-75
2022/07/18 04:17:26;;;;;;;9.23;3.90;;;410.50;2355.20;;;;;;5156965;27;20023;-75
2022/07/18 04:19:52;;;;;;;8.85;4.15;;;410.50;2355.20;;;;;;5160243;27;20086;-79
2022/07/18 04:22:17;;;;;;;9.77;3.97;;;410.40;2355.20;;;;;;5162492;27;20007;-77
2022/07/18 04:24:43;;;;;;;9.20;3.55;;;410.30;2355.20;;;;;;5162416;27;20008;-78
2022/07/18 04:27:09;;;;;;;6.93;3.70;;;410.50;2355.20;;;;;;5149324;27;20019;-76
2022/07/18 04:29:37;;;;;;;6.15;3.88;;;435.20;2355.20;;;;;;5142528;27;20096;-76
2022/07/18 04:32:03;;;;;;;7.32;3.50;;;410.30;2355.20;;;;;;5141433;27;20523;-77
2022/07/18 04:34:29;;;;;;;8.20;4.50;;;410.40;2355.20;;;;;;5136645;27;20065;-75
2022/07/18 04:36:55;;;;;;;8.45;3.45;;;409.90;2355.20;;;;;;5136923;27;20063;-78
2022/07/18 04:39:21;;;;;;;8.85;4.03;;;410.10;2355.20;;;;;;5138739;27;20501;-76
2022/07/18 04:41:47;;;;;;;8.55;4.20;;;409.80;2355.20;;;;;;5136670;27;20023;-77
2022/07/18 04:44:13;;;;;;;5.65;3.60;;;409.90;2355.20;;;;;;5136129;27;20491;-77
2022/07/18 04:46:39;;;;;;;10.50;4.30;;;410.20;2355.20;;;;;;5136691;27;20019;-75
2022/07/18 04:49:05;;;;;;;11.20;4.70;;;410.20;2355.20;;;;;;5136023;27;20034;-75
2022/07/18 04:51:32;;;;;;;10.43;5.28;;;410.40;2355.20;;;;;;5137948;27;20023;-76
2022/07/18 04:53:58;;;;;;;11.43;5.43;;;435.30;2355.20;;;;;;5136333;27;20355;-76
2022/07/18 04:56:24;;;;;;;9.50;4.95;;;435.50;2355.20;;;;;;5136036;27;20024;-76
2022/07/18 04:58:49;;;;;;;10.95;4.28;;;435.60;2355.20;;;;;;5136511;27;20030;-75
2022/07/18 05:01:15;;;;;;;18.40;5.80;;;435.80;2355.20;;;;;;5136290;27;20429;-78
2022/07/18 05:03:41;;;;;;;10.40;4.38;;;435.50;2355.20;;;;;;5135779;27;20486;-76
2022/07/18 05:06:07;;;;;;;13.02;5.43;;;435.60;2355.20;;;;;;5135856;27;20035;-75
2022/07/18 05:08:33;;;;;;;13.75;6.32;;;435.80;2355.20;;;;;;5135167;27;20042;-75
2022/07/18 05:10:59;;;;;;;11.43;5.88;;;435.70;2355.20;;;;;;5136485;27;20068;-75
2022/07/18 05:13:25;;;;;;;12.38;5.75;;;436.00;2355.20;;;;;;5137034;27;20051;-77
2022/07/18 05:15:51;;;;;;;12.18;6.20;;;436.10;2355.20;;;;;;5136904;27;20034;-76
2022/07/18 05:18:17;;;;;;;11.05;5.80;;;460.80;2380.80;;;;;;5135912;27;20023;-76
2022/07/18 05:20:43;;;;;;;9.65;4.43;;;460.80;2380.80;;;;;;5135785;27;20376;-77
2022/07/18 05:23:09;;;;;;;10.63;5.38;;;460.90;2380.80;;;;;;5135692;27;20062;-76
2022/07/18 05:25:35;;;;;;;7.70;4.50;;;460.90;2380.80;;;;;;5135652;27;20039;-79
2022/07/18 05:28:01;;;;;;;10.63;4.75;;;460.90;2355.20;;;;;;5136959;27;20092;-78
2022/07/18 05:30:27;;;;;;;10.20;4.72;;;461.00;2355.20;;;;;;5135114;27;20053;-79
2022/07/18 05:32:53;;;;;;;9.57;4.50;;;461.00;2355.20;;;;;;5135535;27;20080;-76
2022/07/18 05:35:19;;;;;;;8.77;4.47;;;461.10;2355.20;;;;;;5135488;27;20452;-79
2022/07/18 05:37:45;;;;;;;8.57;3.83;;;461.40;2329.60;;;;;;5135087;27;20123;-75
2022/07/18 05:40:13;;;;;;;8.95;4.13;;;;;;;;;;5135302;27;20061;-77
2022/07/18 05:42:40;;;;;;;9.65;4.38;;;;;;;;;;5136313;27;20380;-78
2022/07/18 05:45:07;;;;;;;7.45;4.25;;;;;;;;;;5134687;27;20043;-77
2022/07/18 05:47:32;;;;;;;12.25;4.47;;;486.50;2304.00;;;;;;5135419;27;20020;-76
2022/07/18 05:49:58;;;;;;;7.25;3.65;;;486.50;2252.80;;;;;;5136367;27;20456;-78
2022/07/18 05:52:24;;;;;;;7.65;3.63;;;486.40;2252.80;;;;;;5134982;27;20460;-78
2022/07/18 05:54:50;;;;;;;8.60;4.47;;;486.70;2252.80;;;;;;5136501;27;20447;-78
2022/07/18 05:57:16;;;;;;;7.25;3.70;;;486.80;2252.80;;;;;;5136026;27;20027;-79
2022/07/18 05:59:41;;;;;;;7.95;3.47;;;487.00;2227.20;;;;;;5134666;27;20031;-76
2022/07/18 06:02:08;;;;;;;7.65;4.45;;;486.90;2227.20;;;;;;5134969;27;20026;-77
2022/07/18 06:04:35;;;;;;;13.52;4.28;;;486.70;2252.80;;;;;;5135079;27;20046;-78
2022/07/18 06:07:00;;;;;;;8.77;3.78;;;486.90;2227.20;;;;;;5134823;27;20165;-76
2022/07/18 06:09:30;;;;;;;8.30;3.92;;;487.00;2201.60;;;;;;5134881;27;20084;-76
2022/07/18 06:12:00;;;;;;;9.85;3.78;;;487.20;2201.60;;;;;;5134463;27;20034;-75
2022/07/18 06:14:30;;;;;;;8.68;3.53;;;512.00;2176.00;;;;;;5134793;27;20035;-76
2022/07/18 06:16:56;;;;;;;12.98;3.90;;;512.20;2150.40;;;;;;5135408;27;20030;-76
2022/07/18 06:19:22;;;;;;;7.28;3.47;;;512.60;2124.80;;;;;;5134111;27;20064;-78
2022/07/18 06:21:48;;;;;;;7.18;4.75;;;512.40;2124.80;;;;;;5135585;27;20034;-76
2022/07/18 06:24:14;;;;;;;7.78;4.50;;;512.70;2124.80;;;;;;5136116;27;20023;-79
2022/07/18 06:26:40;;;;;;;7.63;3.90;;;537.60;2124.80;;;;;;5133992;27;20122;-77
2022/07/18 06:29:06;;;;;;;7.25;3.47;;;537.70;2150.40;;;;;;5134305;27;20026;-77
2022/07/18 06:31:32;;;;;;;8.98;3.72;;;537.60;2099.20;;;;;;5134274;27;20497;-76
2022/07/18 06:33:57;;;;;;;6.40;3.95;;;537.70;2099.20;;;;;;5135178;27;20031;-77
2022/07/18 06:36:23;;;;;;;9.93;3.63;;;538.00;2099.20;;;;;;5134025;27;20041;-78
2022/07/18 06:38:53;;;;;;;7.03;3.50;;;;;;;;;;5134241;27;20391;-76
2022/07/18 06:41:20;;;;;;;7.85;4.05;;;;;;;;;;5134709;27;20019;-78
2022/07/18 06:43:46;;;;;;;7.40;3.50;;;563.40;2048.00;;;;;;5135846;27;20023;-79
2022/07/18 06:46:12;;;;;;;7.38;3.55;;;;;;;;;;5134740;27;20054;-77
2022/07/18 06:48:38;;;;;;;9.95;3.72;;;;;;;;;;5135293;27;20026;-78
2022/07/18 06:51:05;;;;;;;6.18;2.80;;;;;;;;;;5136067;27;20019;-76
2022/07/18 06:53:32;;;;;;;5.18;3.13;;;;;;;;;;5137488;27;20406;-79
2022/07/18 06:55:58;;;;;;;9.13;3.70;;;;;;;;;;5136395;27;20035;-78
2022/07/18 06:58:24;;;;;;;9.70;3.35;;;;;;;;;;5137159;27;20035;-80
2022/07/18 07:00:51;;;;;;;9.75;3.42;;;;;;;;;;5137288;27;20049;-77
2022/07/18 07:03:17;;;;;;;8.55;3.42;;;;;;;;;;5134802;27;20043;-79
2022/07/18 07:05:43;;;;;;;4.95;3.20;;;;;;;;;;5133985;27;20023;-78
2022/07/18 07:08:09;;;;;;;7.88;2.88;;;;;;;;;;5135081;27;20023;-77
2022/07/18 07:10:38;;;;;;;6.07;2.90;;;;;;;;;;5135019;27;20067;-76
2022/07/18 07:13:04;;;;;;;6.35;2.83;;;;;;;;;;5133686;27;20027;-79
2022/07/18 07:15:30;;;;;;;6.43;2.72;;;;;;;;;;5133263;27;20024;-78
2022/07/18 07:17:56;;;;;;;9.82;2.80;;;;;;;;;;5133663;27;20027;-76
2022/07/18 07:20:22;;;;;;;7.72;3.38;;;589.70;1817.60;;;;;;5133522;27;20031;-80
2022/07/18 07:22:53;;;;;;;6.82;2.90;;;589.70;1792.00;;;;;;5134689;27;20106;-79
2022/07/18 07:25:21;;;;;;;7.25;2.85;;;614.60;1792.00;;;;;;5133541;27;20027;-76
2022/07/18 07:27:47;;;;;;;5.03;2.47;;;;;;;;;;5133428;27;20019;-77
2022/07/18 07:30:14;;;;;;;6.85;2.60;;;;;;;;;;5134091;27;20019;-79
2022/07/18 07:32:42;;;;;;;6.60;2.60;;;;;;;;;;5134610;27;20015;-78
2022/07/18 07:35:11;;;;;;;11.75;3.15;;;;;;;;;;5133189;28;20038;-78
2022/07/18 07:37:37;;;;;;;7.30;2.85;;;;;;;;;;5132821;28;20019;-79
2022/07/18 07:40:04;;;;;;;7.40;3.05;;;;;;;;;;5132997;28;20415;-80
2022/07/18 07:42:30;;;;;;;6.38;2.58;;;;;;;;;;5133172;28;20023;-80
2022/07/18 07:44:56;;;;;;;7.13;2.35;;;;;;;;;;5132490;28;20145;-81
2022/07/18 07:47:22;;;;;;;5.97;2.03;;;;;;;;;;5133360;28;20019;-78
2022/07/18 07:49:48;;;;;;;6.38;2.05;;;;;;;;;;5132722;28;20484;-77
2022/07/18 07:52:17;;;;;;;3.45;1.67;;;;;;;;;;5133171;28;20372;-78
2022/07/18 07:54:44;;;;;;;7.80;2.25;;;;;;;;;;5120912;28;20027;-77
2022/07/18 07:57:11;;;;;;;4.60;2.00;;;;;;;;;;5112421;28;20028;-79
2022/07/18 07:59:37;;;;;;;6.55;2.00;;;;;;;;;;5112705;28;20015;-78
2022/07/18 08:02:03;;;;;;;19.30;12.02;;;;;;;;;;5113799;28;20019;-76
2022/07/18 08:04:30;;;;;;;7.47;4.47;;;;;;;;;;5112099;28;20496;-78
2022/07/18 08:06:56;;;;;;;6.07;2.47;;;;;;;;;;5111957;28;20142;-77
2022/07/18 08:09:22;;;;;;;8.80;2.88;;;;;;;;;;5112493;28;20496;-80
2022/07/18 08:11:48;;;;;;;6.97;4.05;;;;;;;;;;5112208;28;20024;-76
2022/07/18 08:14:15;;;;;;;7.47;3.45;;;691.30;1536.00;;;;;;5112300;28;20106;-77
2022/07/18 08:16:40;;;;;;;6.18;1.90;;;691.20;1536.00;;;;;;5112534;28;20028;-77
2022/07/18 08:19:06;;;;;;;7.28;5.00;;;666.50;1510.40;;;;;;5112201;28;20115;-78
2022/07/18 08:21:32;;;;;;;5.82;3.45;;;666.50;1510.40;;;;;;5113634;28;20020;-76
2022/07/18 08:23:58;;;;;;;5.55;3.38;;;691.20;1536.00;;;;;;5112419;28;20052;-78
2022/07/18 08:26:24;;;;;;;3.97;1.70;;;691.40;1510.40;;;;;;5111988;28;20058;-77
2022/07/18 08:28:50;;;;;;;6.05;1.70;;;691.30;1484.80;;;;;;5112342;28;20030;-79
2022/07/18 08:31:18;;;;;;;4.00;2.10;;;691.30;1484.80;;;;;;5112324;28;20028;-77
2022/07/18 08:33:44;;;;;;;3.75;1.80;;;691.40;1510.40;;;;;;5111823;28;20024;-78
2022/07/18 08:36:10;;;;;;;4.50;1.50;;;691.60;1484.80;;;;;;5113570;28;20031;-78
2022/07/18 08:38:36;;;;;;;6.97;2.00;;;691.60;1459.20;;;;;;5112287;28;20031;-79
2022/07/18 08:41:03;;;;;;;3.97;1.65;;;691.60;1459.20;;;;;;5113603;28;20051;-80
2022/07/18 08:43:29;;;;;;;3.40;1.67;;;691.80;1484.80;;;;;;5115294;28;20021;-77
2022/07/18 08:45:57;;;;;;;7.70;2.22;;;691.80;1433.60;;;;;;5115521;28;20443;-77
2022/07/18 08:48:23;;;;;;;5.28;1.77;;;691.80;1484.80;;;;;;5115885;28;20076;-78
2022/07/18 08:50:49;;;;;;;5.68;1.98;;;691.90;1484.80;;;;;;5115831;28;20028;-78
2022/07/18 08:53:17;;;;;;;3.38;1.70;;;716.80;1484.80;;;;;;5115238;28;20114;-76
2022/07/18 08:55:44;;;;;;;6.00;3.72;;;716.80;1484.80;;;;;;5115528;28;20027;-78
2022/07/18 08:58:12;;;;;;;3.58;1.70;;;716.90;1484.80;;;;;;5115700;28;20027;-77
2022/07/18 09:00:37;;;;;;;3.80;1.67;;;717.00;1459.20;;;;;;5116360;28;20047;-79
2022/07/18 09:03:04;;;;;;;4.85;1.80;;;717.10;1459.20;;;;;;5117149;27;20054;-78
2022/07/18 09:05:31;;;;;;;3.75;2.20;;;717.20;1433.60;;;;;;5115457;28;20031;-77
2022/07/18 09:08:19;;;;;;;7.50;2.90;;;717.40;1459.20;;;;;;5115156;28;20046;-78
2022/07/18 09:11:00;;;;;;;4.63;1.83;;;717.60;1433.60;;;;;;5114196;28;20024;-80
2022/07/18 09:13:40;;;;;;;7.50;3.58;;;717.50;1433.60;;;;;;5115462;28;20027;-79
2022/07/18 09:16:13;;;;;;;4.60;2.60;;;742.40;1459.20;;;;;;5115246;28;20486;-78
2022/07/18 09:18:47;;;;;;;5.18;2.45;;;742.50;1433.60;;;;;;5115235;28;20024;-78
2022/07/18 09:21:15;;;;;;;6.75;2.00;;;742.70;1459.20;;;;;;5114852;28;20023;-78
2022/07/18 09:23:49;;;;;;;4.35;2.10;;;742.80;1459.20;;;;;;5114864;28;20066;-77
2022/07/18 09:26:35;;;;;;;4.50;2.80;;;742.90;1433.60;;;;;;5116218;28;20460;-78
2022/07/18 09:29:01;;;;;;;5.95;2.70;;;743.00;1459.20;;;;;;5100696;28;20031;-79
2022/07/18 09:31:27;;;;;;;4.05;2.40;;;743.10;1459.20;;;;;;5116482;28;20019;-79
2022/07/18 09:33:59;;;;;;;3.85;1.80;;;743.10;1408.00;;;;;;5114911;28;20024;-78
2022/07/18 09:36:25;;;;;;;4.18;2.80;;;743.30;1408.00;;;;;;5114554;28;20130;-79
2022/07/18 09:38:51;;;;;;;6.93;4.25;;;743.30;1382.40;;;;;;5114932;28;20122;-77
2022/07/18 09:41:23;;;;;;;3.75;2.00;;;743.30;1382.40;;;;;;5114843;28;20031;-78
2022/07/18 09:43:49;;;;;;;8.30;5.68;;;768.10;1382.40;;;;;;5116018;28;20020;-80
2022/07/18 09:46:15;;;;;;;7.30;2.17;;;768.10;1408.00;;;;;;5114405;28;20516;-79
2022/07/18 09:48:40;;;;;;;5.22;3.25;;;768.10;1408.00;;;;;;5114609;28;20464;-79
2022/07/18 09:51:07;;;;;;;3.90;1.77;;;768.20;1382.40;;;;;;5114797;28;20027;-79
2022/07/18 09:53:36;;;;;;;8.27;2.97;;;768.30;1382.40;;;;;;5114557;28;20093;-77
2022/07/18 09:56:10;;;;;;;6.35;4.75;;;768.90;1382.40;;;;;;5114212;28;20035;-77
2022/07/18 09:58:38;;;;;;;8.93;3.08;;;;;;;;;;5114414;28;20114;-80
2022/07/18 10:01:05;;;;;;;8.57;6.32;;;793.70;1408.00;;;;;;5114413;28;20082;-79
2022/07/18 10:03:31;;;;;;;4.07;2.00;;;;;;;;;;5114196;28;20028;-76
2022/07/18 10:05:58;;;;;;;3.40;2.00;;;;;;;;;;5114309;28;20054;-77
2022/07/18 10:08:26;;;;;;;4.03;1.83;;;;;;;;;;5115214;28;20031;-79
2022/07/18 10:10:53;;;;;;;3.40;1.70;;;;;;;;;;5115127;28;20210;-79
2022/07/18 10:13:20;;;;;;;3.65;1.85;;;;;;;;;;5114042;28;20430;-76
2022/07/18 10:15:47;;;;;;;4.65;1.90;;;;;;;;;;5114025;28;20032;-80
2022/07/18 10:18:18;;;;;;;4.55;1.80;;;793.70;1433.60;;;;;;5113933;27;20542;-78
2022/07/18 10:20:57;;;;;;;8.02;2.45;;;793.90;1408.00;;;;;;5115538;28;20414;-78
2022/07/18 10:23:27;;;;;;;5.07;2.58;;;793.90;1408.00;;;;;;5114488;28;20027;-80
2022/07/18 10:26:16;;;;;;;4.88;2.58;;;794.00;1408.00;;;;;;5118693;28;20059;-79
2022/07/18 10:29:00;;;;;;;3.67;1.70;;;794.00;1382.40;;;;;;5132245;27;20076;-79
2022/07/18 10:31:39;;;;;;;5.38;1.88;;;793.70;1382.40;;;;;;5124566;27;20479;-77
2022/07/18 10:34:08;;;;;;;4.10;1.73;;;793.80;1433.60;;;;;;5134218;27;20100;-79
2022/07/18 10:36:35;;;;;;;13.10;1.95;;;794.00;1408.00;;;;;;5133916;27;20027;-78
2022/07/18 10:39:10;;;;;;;5.55;2.20;;;794.40;1408.00;;;;;;5133823;27;20372;-79
2022/07/18 10:41:39;;;;;;;4.32;1.50;;;794.20;1382.40;;;;;;5134246;27;20034;-79
2022/07/18 10:44:23;;;;;;;7.75;1.85;;;794.20;1408.00;;;;;;5134331;27;20087;-77
2022/07/18 10:50:06;;;;;;;5.30;2.20;;;793.90;1408.00;;;;;;5071674;28;20036;-79
2022/07/18 10:52:52;;;;;;;5.63;1.70;;;794.10;1408.00;;;;;;5073004;28;20461;-80
2022/07/18 10:55:23;;;;;;;3.78;2.17;;;794.20;1408.00;;;;;;5073743;28;20071;-81
2022/07/18 10:57:49;;;;;;;7.57;3.20;;;794.40;1408.00;;;;;;5072773;28;20032;-80
2022/07/18 11:00:37;;;;;;;6.60;2.13;;;794.40;1382.40;;;;;;5072416;28;20367;-79
2022/07/18 11:03:11;;;;;;;3.88;2.03;;;819.30;1382.40;;;;;;5072665;28;20020;-76
2022/07/18 11:17:08;;;;;;;4.72;2.30;;;819.60;1408.00;;;;;;5020225;28;20446;-76
2022/07/18 11:19:34;;;;;;;8.57;2.35;;;845.20;1356.80;;;;;;5014775;28;20038;-78
2022/07/18 11:22:00;;;;;;;4.45;2.10;;;845.20;1356.80;;;;;;5009276;28;20022;-77
2022/07/18 11:24:26;;;;;;;9.10;3.45;;;845.20;1331.20;;;;;;5009122;28;20022;-76
2022/07/18 11:26:52;;;;;;;4.55;2.50;;;845.30;1356.80;;;;;;5010214;28;20053;-77
2022/07/18 11:29:20;;;;;;;7.07;2.63;;;845.30;1356.80;;;;;;5009212;28;20030;-78
2022/07/18 11:31:50;;;;;;;4.65;2.15;;;845.40;1356.80;;;;;;5009955;28;20081;-78
2022/07/18 11:34:17;;;;;;;3.70;2.38;;;845.20;1331.20;;;;;;5008762;28;20033;-76
2022/07/18 11:36:46;;;;;;;3.05;1.70;;;845.30;1331.20;;;;;;5009464;28;20109;-78
2022/07/18 11:39:13;;;;;;;4.95;1.90;;;845.20;1382.40;;;;;;5009047;28;20371;-77
2022/07/18 11:41:40;;;;;;;5.82;2.20;;;844.90;1356.80;;;;;;5006482;28;20060;-77
2022/07/18 11:44:29;;;;;;;7.85;4.10;;;845.30;1382.40;;;;;;5008798;28;20038;-76
2022/07/18 11:47:12;;;;;;;6.47;1.73;;;845.40;1382.40;;;;;;5010264;28;20045;-77
2022/07/18 11:49:38;;;;;;;3.50;2.15;;;845.50;1382.40;;;;;;5008714;28;20022;-79
2022/07/18 11:52:06;;;;;;;3.92;1.77;;;845.10;1382.40;;;;;;5008793;28;20076;-78
2022/07/18 11:54:32;;;;;;;5.75;2.15;;;845.50;1305.60;;;;;;5008449;28;20033;-78
2022/07/18 11:57:00;;;;;;;5.82;2.38;;;845.70;1331.20;;;;;;5009615;28;20117;-76
2022/07/18 11:59:41;;;;;;;3.90;2.15;;;845.50;1356.80;;;;;;5009901;28;20018;-77
2022/07/18 12:02:08;;;;;;;6.00;1.90;;;845.70;1356.80;;;;;;5007813;28;20034;-78
2022/07/18 12:04:34;;;;;;;10.13;3.85;;;870.40;1356.80;;;;;;5009986;28;20387;-76
2022/07/18 12:07:22;;;;;;;4.97;2.10;;;870.50;1331.20;;;;;;5008750;28;20037;-75
2022/07/18 12:09:50;;;;;;;6.05;2.38;;;870.60;1305.60;;;;;;5008485;28;20479;-76
2022/07/18 12:12:18;;;;;;;3.95;2.42;;;870.50;1305.60;;;;;;5008706;28;20391;-77
2022/07/18 12:14:53;;;;;;;5.40;2.47;;;870.40;1331.20;;;;;;5008654;28;20057;-77
2022/07/18 12:17:19;;;;;;;7.75;2.30;;;870.70;1356.80;;;;;;4999434;28;20033;-76
2022/07/18 12:19:45;;;;;;;7.55;3.03;;;870.50;1331.20;;;;;;4995518;28;20027;-75
2022/07/18 12:22:12;;;;;;;6.82;4.43;;;870.50;1331.20;;;;;;4995040;28;20026;-75
2022/07/18 12:24:41;;;;;;;6.13;3.67;;;870.60;1331.20;;;;;;4994488;28;20505;-77
2022/07/18 12:27:20;;;;;;;8.57;5.57;;;870.70;1305.60;;;;;;4994697;28;20057;-78
2022/07/18 12:30:02;;;;;;;12.10;7.93;;;870.80;1331.20;;;;;;4994859;28;20108;-78
2022/07/18 12:32:29;;;;;;;8.18;4.05;;;870.90;1331.20;;;;;;4993627;28;20025;-77
2022/07/18 12:35:01;;;;;;;4.45;2.20;;;871.00;1331.20;;;;;;4995248;28;20030;-80
2022/07/18 12:37:29;;;;;;;3.58;2.20;;;870.80;1305.60;;;;;;4994699;28;20030;-79
2022/07/18 12:39:58;;;;;;;6.95;2.78;;;870.60;1331.20;;;;;;4994484;28;20032;-77
2022/07/18 12:42:31;;;;;;;5.88;3.83;;;870.70;1331.20;;;;;;4994771;28;20113;-78
2022/07/18 12:44:57;;;;;;;5.32;2.35;;;870.60;1331.20;;;;;;4994908;28;20032;-79
2022/07/18 12:47:23;;;;;;;6.18;2.92;;;870.60;1331.20;;;;;;4994637;28;20034;-76
2022/07/18 12:49:49;;;;;;;8.85;5.22;;;870.80;1331.20;;;;;;4995059;28;20092;-77
2022/07/18 12:52:16;;;;;;;4.78;2.65;;;870.90;1331.20;;;;;;4994156;28;20031;-78
2022/07/18 12:54:42;;;;;;;5.70;2.63;;;871.10;1331.20;;;;;;4993787;28;20121;-77
2022/07/18 12:57:08;;;;;;;7.55;4.55;;;870.70;1305.60;;;;;;4994861;28;20455;-76